Aeroporto :
LOGIN :

Iscrizione | Disclaimer

   EN    FR    IT 

 










Sommario :    VFR   VFR Marginale   IFR   IFR Intensivo   IFR Molto Intensivo
Visibilità : 
Base nubi : 
>= 8 km
>= 3000ft
5 / 8 km
1000 / 3000 ft
1500m / 5 km
500 / 1000 ft
800 / 1500m
200 / 500 ft
< 800m
< 200 ft
Simboli :   Temporali  Nebbia  Neve Forte  Precipitazioni Forti  Vento > 20 kt
SIGMETs :   Varie  Temporali  Ghiacco  Turbolenza  Onda orograficha  Ceneri Vulcaniche






- Altitudine del aeroporto : 255 ft


ENGC - Gullfaks C oil platform

ULTIMO METAR :
  • 171450Z 29033KT 9999 SCT025 07/01 Q0975 W06/S7

METARs OBSOLETI :
  • 171420Z 29033KT 9999 SCT025 07/01 Q0974 W06/S7
  • 171350Z 30033KT 9999 SCT020TCU 07/03 Q0973 W06/S7
  • 171320Z 30037KT 9999 -SHRA FEW015CB SCT035 07/03 Q0972 W07/S6
  • 171220Z 30044KT 9999 FEW015TCU SCT025 07/03 Q0969 W07/S7

TAF ENGC
Valido dal 17 a 15 ore il 18 a 15 ore UTC


1715/1815 27038KT 9999 -SHRA FEW012TCU BKN020
TEMPO 1715/1815 4000 SHRAGS BKN012CB



MetMap, La meteo Aeronautica in un colpo d'occhio ! - Copyright ORBIFLY Dicembre 2007 - Disclaimer

ORBIFLY MET'MAP TEAM :

Programmazione e sviluppo : Alexandra Zaïnal
Concezione : Baudouin d'Aumeries
Aiuto per la programmazione : Marc-Olivier Méhu
Supporto tecnico e logistico : Manuel Goepfert
Aiuto per la traduzione : Arnaldo La Scala

Contatto : metmap@orbifly.com




FONTI E CREDITI :

   NOAA